Main page
METAR-TAF:

METAR-TAF

Airports :

Noshahr Airport

Noshahr, Iran

latitude: 36-39-48N, longitude: 051-27-53E, elevation: 0 m

Current weather observation

The report was made 27 minutes ago, at 20:00 UTC
Calm wind
Temperature 12°C
Humidity 94%
Pressure 1014 hPa
Visibility: 8000 m
Broken clouds at a height of 2400 ft

METAR: OINN 282000Z 00000KT 8000 BKN024 12/11 Q1014

Time: 00:57 (20:27 UTC)


TAF: missing

Weather observations and forecasts of more than 4000 airports (METAR and TAF reports).

The available stations are represented by yellow and red dots on the map.

Hover mouse over dot to see the name of the station.

Then click to see weather observations and forecasts.

To change the map : click on the green buttons with a black cross to zoom in, on the green button with a dash to zoom out, or on the green arrows for adjacent maps.


METAR-TAF: